Time;durP1;ratioP1;P1;durP2;ratioP2;P2;SDS_P1;SDS_P2;PMS_P1;PMS_P2;Temp;Humidity;BMP_temperature;BMP_pressure;BME280_temperature;BME280_humidity;BME280_pressure;Samples;Min_cycle;Max_cycle;Signal;HPM_P1;HPM_P2
2023/04/28 00:00:24;;;;;;;;;;;;;;;16.69;48.03;100983.28;5019342;28;1063;-52
2023/04/28 00:02:49;;;;;;;;;;;;;;;16.49;47.50;100995.00;5018535;28;1051;-51
2023/04/28 00:05:15;;;;;;;;;;;;;;;17.86;46.54;100996.66;5018202;28;1972;-49
2023/04/28 00:07:40;;;;;;;;;;;;;;;16.80;48.36;100994.28;5019481;28;1093;-51
2023/04/28 00:10:06;;;;;;;;;;;;;;;16.48;47.70;100993.38;5023175;28;1172;-50
2023/04/28 00:12:32;;;;;;;;;;;;;;;16.33;46.98;100985.88;5018865;28;1024;-47
2023/04/28 00:14:57;;;;;;;;;;;;;;;17.45;47.21;100984.56;5018504;28;1044;-50
2023/04/28 00:17:23;;;;;;;;;;;;;;;16.84;47.94;100979.75;5018941;28;1044;-49
2023/04/28 00:19:49;;;;;;;;;;;;;;;16.55;47.51;100982.97;5019251;28;1063;-46
2023/04/28 00:22:14;;;;;;;;;;;;;;;16.37;47.04;100986.19;5027910;28;1190;-49
2023/04/28 00:24:40;;;;;;;;;;;;;;;17.50;47.30;100993.91;5018209;28;1902;-51
2023/04/28 00:27:06;;;;;;;;;;;;;;;16.63;48.08;100994.50;5018405;28;1094;-51
2023/04/28 00:29:31;;;;;;;;;;;;;;;16.44;47.37;101005.97;5016558;28;1643;-50
2023/04/28 00:31:57;;;;;;;;;;;;;;;16.32;46.71;101006.16;5019856;28;1102;-49
2023/04/28 00:34:22;;;;;;;;;;;;;;;16.20;46.07;101011.03;5022921;28;992;-51
2023/04/28 00:36:48;;;;;;;;;;;;;;;16.72;47.63;101010.19;5018573;28;1064;-47
2023/04/28 00:39:14;;;;;;;;;;;;;;;16.33;47.18;101013.31;5018261;28;1175;-49
2023/04/28 00:41:40;;;;;;;;;;;;;;;17.68;46.97;101018.09;5018148;28;1202;-49
2023/04/28 00:44:05;;;;;;;;;;;;;;;16.82;48.15;101005.84;5018269;28;2070;-49
2023/04/28 00:46:32;;;;;;;;;;;;;;;16.41;47.81;100999.09;5016585;28;1505;-50
2023/04/28 00:48:57;;;;;;;;;;;;;;;16.29;46.71;101001.22;5016446;28;1485;-47
2023/04/28 00:51:23;;;;;;;;;;;;;;;17.30;47.07;101012.03;5017671;28;1123;-50
2023/04/28 00:53:49;;;;;;;;;;;;;;;16.57;47.96;101016.44;5016611;28;1258;-51
2023/04/28 00:56:14;;;;;;;;;;;;;;;16.26;47.34;101009.97;5019049;28;1526;-50
2023/04/28 00:58:40;;;;;;;;;;;;;;;17.18;47.34;101008.69;5022223;28;1110;-51
2023/04/28 01:01:06;;;;;;;;;;;;;;;16.52;47.72;101010.09;5017888;28;1201;-52
2023/04/28 01:03:38;;;;;;;;;;;;;;;16.30;47.03;101005.63;5017548;28;1965;-50
2023/04/28 01:06:05;;;;;;;;;;;;;;;16.20;46.32;101020.09;5016883;28;1230;-49
2023/04/28 01:08:31;;;;;;;;;;;;;;;17.07;47.41;101014.19;5026734;28;1047;-52
2023/04/28 01:10:58;;;;;;;;;;;;;;;16.49;47.41;101018.88;5016397;28;1416;-50
2023/04/28 01:13:42;;;;;;;;;;;;;;;16.29;46.79;101017.69;5017122;28;1170;-50
2023/04/28 01:16:07;;;;;;;;;;;;;;;17.19;47.20;101019.41;5016138;28;1104;-49
2023/04/28 01:18:33;;;;;;;;;;;;;;;17.04;47.64;101025.72;5015729;28;1131;-48
2023/04/28 01:20:59;;;;;;;;;;;;;;;16.47;47.52;101021.91;5023125;28;1238;-51
2023/04/28 01:23:24;;;;;;;;;;;;;;;17.68;47.21;101014.53;5017264;28;1906;-50
2023/04/28 01:25:50;;;;;;;;;;;;;;;16.97;47.93;101011.41;5016018;28;1308;-49
2023/04/28 01:28:15;;;;;;;;;;;;;;;16.60;47.42;101006.84;5016672;28;1226;-46
2023/04/28 01:30:41;;;;;;;;;;;;;;;17.24;47.87;101004.88;5016139;28;1155;-49
2023/04/28 01:33:07;;;;;;;;;;;;;;;16.68;47.94;101008.28;5017220;28;1307;-49
2023/04/28 01:35:32;;;;;;;;;;;;;;;16.42;47.08;101008.13;5016943;28;1177;-52
2023/04/28 01:37:58;;;;;;;;;;;;;;;16.32;46.54;101003.41;5016948;28;1150;-50
2023/04/28 01:40:26;;;;;;;;;;;;;;;17.17;47.29;101005.13;5028230;28;1118;-49
2023/04/28 01:42:51;;;;;;;;;;;;;;;16.46;47.67;101005.69;5036379;28;1198;-50
2023/04/28 01:45:17;;;;;;;;;;;;;;;16.32;47.05;100997.94;5032025;28;1909;-48
2023/04/28 01:47:42;;;;;;;;;;;;;;;16.99;47.54;101003.72;5017420;28;1062;-50
2023/04/28 01:50:08;;;;;;;;;;;;;;;16.42;47.63;101002.66;5017138;28;1147;-52
2023/04/28 01:52:34;;;;;;;;;;;;;;;16.97;47.50;101002.34;5016374;28;1095;-51
2023/04/28 01:55:00;;;;;;;;;;;;;;;16.90;47.85;101002.59;5015440;28;1140;-51
2023/04/28 01:57:27;;;;;;;;;;;;;;;16.52;47.49;100999.97;5015486;28;1219;-49
2023/04/28 01:59:55;;;;;;;;;;;;;;;17.57;46.93;101002.69;5015553;28;1167;-52
2023/04/28 02:02:20;;;;;;;;;;;;;;;16.63;47.73;101011.78;5015261;28;1121;-50
2023/04/28 02:04:46;;;;;;;;;;;;;;;16.40;47.21;101016.63;5012000;28;1942;-49
2023/04/28 02:07:11;;;;;;;;;;;;;;;16.36;46.30;101007.28;5047086;28;1512;-51
2023/04/28 02:09:37;;;;;;;;;;;;;;;16.99;47.51;101006.47;5024499;28;1115;-49
2023/04/28 02:12:03;;;;;;;;;;;;;;;17.10;47.69;101021.88;5018238;28;1079;-51
2023/04/28 02:14:31;;;;;;;;;;;;;;;18.63;45.72;101015.75;5016489;28;1063;-49
2023/04/28 02:16:57;;;;;;;;;;;;;;;17.42;48.09;101004.34;5016465;28;1187;-51
2023/04/28 02:19:22;;;;;;;;;;;;;;;16.82;47.80;101008.59;5014866;28;1533;-51
2023/04/28 02:21:48;;;;;;;;;;;;;;;16.72;46.87;101006.63;5019626;28;1108;-51
2023/04/28 02:24:13;;;;;;;;;;;;;;;17.35;48.10;101016.69;5015112;28;1984;-51
2023/04/28 02:26:39;;;;;;;;;;;;;;;16.86;47.96;101021.50;5016415;28;1163;-49
2023/04/28 02:29:05;;;;;;;;;;;;;;;17.68;47.61;101023.59;5015812;28;1118;-50
2023/04/28 02:31:31;;;;;;;;;;;;;;;17.95;47.40;101026.09;5020588;28;1543;-53
2023/04/28 02:33:57;;;;;;;;;;;;;;;17.06;48.13;101017.22;5034614;28;1047;-52
2023/04/28 02:36:23;;;;;;;;;;;;;;;16.74;47.25;101024.47;5015949;28;1150;-52
2023/04/28 02:38:48;;;;;;;;;;;;;;;16.63;46.47;101022.78;5015068;28;1103;-51
2023/04/28 02:41:14;;;;;;;;;;;;;;;16.67;46.64;101036.81;5015989;28;1119;-50
2023/04/28 02:43:40;;;;;;;;;;;;;;;16.99;47.51;101035.88;5026352;28;1905;-51
2023/04/28 02:46:06;;;;;;;;;;;;;;;16.71;48.01;101038.75;5022034;28;1125;-52
2023/04/28 02:48:34;;;;;;;;;;;;;;;18.43;46.38;101036.72;5016745;28;1175;-53
2023/04/28 02:50:59;;;;;;;;;;;;;;;17.12;48.16;101037.28;5014717;28;1179;-52
2023/04/28 02:53:25;;;;;;;;;;;;;;;16.76;47.53;101049.75;5015815;28;1040;-52
2023/04/28 02:55:51;;;;;;;;;;;;;;;16.57;46.77;101046.66;5014669;28;1155;-53
2023/04/28 02:58:17;;;;;;;;;;;;;;;16.47;46.56;101052.09;5015251;28;1311;-52
2023/04/28 03:00:42;;;;;;;;;;;;;;;17.66;47.46;101050.56;5014780;28;1155;-50
2023/04/28 03:03:08;;;;;;;;;;;;;;;16.86;47.77;101059.16;5011674;28;1303;-50
2023/04/28 03:05:34;;;;;;;;;;;;;;;17.93;47.37;101060.50;5014101;28;1983;-52
2023/04/28 03:07:59;;;;;;;;;;;;;;;17.39;48.41;101057.13;5016204;28;1039;-51
2023/04/28 03:10:25;;;;;;;;;;;;;;;16.88;48.04;101056.94;5021463;28;1301;-51
2023/04/28 03:12:50;;;;;;;;;;;;;;;16.66;47.17;101055.22;5014789;28;1194;-49
2023/04/28 03:15:17;;;;;;;;;;;;;;;16.55;46.44;101061.72;5014670;28;1326;-52
2023/04/28 03:17:42;;;;;;;;;;;;;;;17.69;47.54;101066.50;5014790;28;1230;-52
2023/04/28 03:20:09;;;;;;;;;;;;;;;16.86;48.04;101064.66;5015983;28;1087;-50
2023/04/28 03:22:34;;;;;;;;;;;;;;;16.45;47.39;101072.66;5014257;28;1474;-52
2023/04/28 03:25:00;;;;;;;;;;;;;;;16.42;46.47;101068.53;5012492;28;2001;-55
2023/04/28 03:27:28;;;;;;;;;;;;;;;17.92;46.84;101081.69;4994765;28;1446;-55
2023/04/28 03:29:55;;;;;;;;;;;;;;;16.90;48.07;101088.56;5012478;28;1203;-56
2023/04/28 03:32:20;;;;;;;;;;;;;;;16.62;46.97;101087.03;5019650;28;1200;-55
2023/04/28 03:34:46;;;;;;;;;;;;;;;16.47;46.26;101084.22;5028997;28;1110;-55
2023/04/28 03:37:12;;;;;;;;;;;;;;;17.00;47.17;101085.03;5019323;28;1130;-55
2023/04/28 03:39:38;;;;;;;;;;;;;;;16.73;47.36;101093.41;5017941;28;1047;-55
2023/04/28 03:42:04;;;;;;;;;;;;;;;16.36;46.82;101097.84;5017527;28;1356;-55
2023/04/28 03:44:30;;;;;;;;;;;;;;;16.23;46.36;101093.66;5018709;28;1983;-55
2023/04/28 03:46:56;;;;;;;;;;;;;;;16.84;46.82;101100.59;5022556;28;1306;-53
2023/04/28 03:49:22;;;;;;;;;;;;;;;17.33;47.19;101102.19;5015412;28;1143;-51
2023/04/28 03:51:48;;;;;;;;;;;;;;;16.61;47.40;101107.34;5024237;28;1644;-54
2023/04/28 03:54:14;;;;;;;;;;;;;;;16.34;46.99;101102.78;5017011;28;1344;-53
2023/04/28 03:56:40;;;;;;;;;;;;;;;17.43;46.83;101107.72;5017429;28;1107;-53
2023/04/28 03:59:05;;;;;;;;;;;;;;;16.56;47.70;101110.06;5026036;28;1151;-52
2023/04/28 04:01:31;;;;;;;;;;;;;;;17.25;47.64;101122.78;5018965;28;1151;-52
2023/04/28 04:03:56;;;;;;;;;;;;;;;17.22;47.91;101111.50;5018506;28;1894;-47
2023/04/28 04:06:22;;;;;;;;;;;;;;;16.56;48.16;101115.53;5031684;28;1090;-45
2023/04/28 04:08:48;;;;;;;;;;;;;;;17.06;47.93;101125.16;5017366;28;1271;-47
2023/04/28 04:11:14;;;;;;;;;;;;;;;16.83;47.75;101125.56;5017250;28;1129;-47
2023/04/28 04:13:40;;;;;;;;;;;;;;;16.42;47.54;101118.78;5017430;28;1452;-49
2023/04/28 04:16:09;;;;;;;;;;;;;;;16.90;47.69;101117.94;5017087;28;1248;-48
2023/04/28 04:18:35;;;;;;;;;;;;;;;16.99;47.71;101116.34;5017116;28;1128;-49
2023/04/28 04:21:13;;;;;;;;;;;;;;;16.56;47.40;101126.53;5019132;28;1163;-46
2023/04/28 04:23:39;;;;;;;;;;;;;;;16.42;46.72;101115.19;5019084;28;1925;-46
2023/04/28 04:26:04;;;;;;;;;;;;;;;16.24;46.17;101125.50;5018812;28;1273;-49
2023/04/28 04:28:30;;;;;;;;;;;;;;;17.96;46.46;101123.22;5017159;28;1123;-47
2023/04/28 04:30:56;;;;;;;;;;;;;;;16.77;48.20;101122.81;5017614;28;1119;-50
2023/04/28 04:33:22;;;;;;;;;;;;;;;16.46;47.49;101120.97;5017045;28;1625;-44
2023/04/28 04:35:48;;;;;;;;;;;;;;;17.28;47.75;101126.91;5026578;28;941;-49
2023/04/28 04:38:13;;;;;;;;;;;;;;;16.68;47.70;101132.66;5000655;28;1178;-50
2023/04/28 04:40:39;;;;;;;;;;;;;;;16.95;47.91;101126.22;4999708;28;1131;-47
2023/04/28 04:43:05;;;;;;;;;;;;;;;17.64;46.84;101131.69;5016858;28;1206;-49
2023/04/28 04:45:37;;;;;;;;;;;;;;;16.86;47.52;101134.13;5016726;28;1905;-48
2023/04/28 04:48:02;;;;;;;;;;;;;;;17.24;47.81;101142.28;5018764;28;1174;-49
2023/04/28 04:50:28;;;;;;;;;;;;;;;17.09;48.09;101141.13;5016511;28;1247;-46
2023/04/28 04:52:55;;;;;;;;;;;;;;;16.63;47.63;101140.84;5016544;28;1245;-48
2023/04/28 04:55:21;;;;;;;;;;;;;;;16.42;47.01;101132.50;5016157;28;1215;-51
2023/04/28 04:57:47;;;;;;;;;;;;;;;17.15;47.43;101136.47;5016596;28;1671;-48
2023/04/28 05:00:33;;;;;;;;;;;;;;;16.41;48.08;101136.31;5023520;28;1205;-42
2023/04/28 05:02:59;;;;;;;;;;;;;;;16.34;46.87;101130.22;5029838;28;1231;-45
2023/04/28 05:05:25;;;;;;;;;;;;;;;17.56;45.33;101133.88;5016238;28;1910;-43
2023/04/28 05:08:04;;;;;;;;;;;;;;;16.88;46.86;101136.59;5016420;28;1286;-44
2023/04/28 05:10:30;;;;;;;;;;;;;;;16.60;47.94;101127.66;5020648;28;1344;-43
2023/04/28 05:12:56;;;;;;;;;;;;;;;16.38;48.38;101125.88;5016012;28;1191;-44
2023/04/28 05:15:22;;;;;;;;;;;;;;;16.23;48.68;101134.00;5016147;28;1228;-46
2023/04/28 05:18:12;;;;;;;;;;;;;;;16.10;49.21;101135.25;5017150;28;1422;-46
2023/04/28 05:20:38;;;;;;;;;;;;;;;16.01;49.40;101140.38;5016016;28;1163;-49
2023/04/28 05:23:04;;;;;;;;;;;;;;;17.44;46.04;101138.78;5031501;28;1229;-49
2023/04/28 05:25:30;;;;;;;;;;;;;;;16.58;47.95;101135.34;5019938;28;1902;-49
2023/04/28 05:27:56;;;;;;;;;;;;;;;16.30;48.90;101142.81;5016069;28;997;-48
2023/04/28 05:30:21;;;;;;;;;;;;;;;16.07;49.64;101136.63;5015908;28;1144;-44
2023/04/28 05:32:47;;;;;;;;;;;;;;;17.43;46.37;101146.22;5015599;28;1682;-46
2023/04/28 05:35:14;;;;;;;;;;;;;;;16.77;47.65;101143.94;5020998;28;1312;-47
2023/04/28 05:37:42;;;;;;;;;;;;;;;16.37;48.92;101140.69;5015661;28;1170;-46
2023/04/28 05:40:08;;;;;;;;;;;;;;;16.13;49.39;101147.63;5003653;28;1464;-46
2023/04/28 05:42:34;;;;;;;;;;;;;;;16.33;49.20;101149.72;5024796;28;1117;-43
2023/04/28 05:44:59;;;;;;;;;;;;;;;17.43;46.35;101145.38;5019375;28;1902;-47
2023/04/28 05:47:25;;;;;;;;;;;;;;;16.63;48.02;101156.50;5016913;28;1277;-45
2023/04/28 05:49:51;;;;;;;;;;;;;;;16.22;49.24;101151.53;5012161;28;1292;-44
2023/04/28 05:52:16;;;;;;;;;;;;;;;16.06;49.52;101145.06;5008344;28;975;-48
2023/04/28 05:54:42;;;;;;;;;;;;;;;16.75;48.05;101151.63;5014834;28;1625;-44
2023/04/28 05:57:07;;;;;;;;;;;;;;;17.17;46.68;101147.22;5015673;28;1192;-44
2023/04/28 05:59:33;;;;;;;;;;;;;;;16.44;48.63;101148.69;5021861;28;1222;-46
2023/04/28 06:01:59;;;;;;;;;;;;;;;16.19;49.36;101154.81;5015482;28;1202;-47
2023/04/28 06:04:25;;;;;;;;;;;;;;;17.21;46.87;101159.31;5031822;28;1902;-46
2023/04/28 06:06:50;;;;;;;;;;;;;;;17.03;47.10;101150.44;5012406;28;1108;-49
2023/04/28 06:09:16;;;;;;;;;;;;;;;16.44;48.57;101156.94;5011851;28;1387;-49
2023/04/28 06:11:42;;;;;;;;;;;;;;;16.18;49.42;101144.91;5020115;28;1392;-47
2023/04/28 06:14:07;;;;;;;;;;;;;;;17.52;46.00;101153.94;5015406;28;1306;-44
2023/04/28 06:16:33;;;;;;;;;;;;;;;16.68;47.98;101151.88;5016402;28;1052;-46
2023/04/28 06:18:58;;;;;;;;;;;;;;;16.35;48.73;101151.06;5015512;28;1132;-46
2023/04/28 06:21:24;;;;;;;;;;;;;;;16.13;49.29;101144.88;5018488;28;1131;-45
2023/04/28 06:23:49;;;;;;;;;;;;;;;16.22;49.21;101146.88;5026524;28;1973;-43
2023/04/28 06:26:15;;;;;;;;;;;;;;;17.59;45.59;101158.06;5015235;28;1414;-47
2023/04/28 06:28:41;;;;;;;;;;;;;;;16.65;47.83;101146.91;5016111;28;1151;-48
2023/04/28 06:31:07;;;;;;;;;;;;;;;16.28;48.96;101136.75;5015074;28;1172;-47
2023/04/28 06:33:33;;;;;;;;;;;;;;;16.08;49.33;101160.19;5015117;28;1436;-44
2023/04/28 06:35:58;;;;;;;;;;;;;;;16.56;48.30;101165.81;5026920;28;1435;-45
2023/04/28 06:38:24;;;;;;;;;;;;;;;17.33;46.24;101162.66;5015129;28;1167;-49
2023/04/28 06:40:50;;;;;;;;;;;;;;;16.57;48.34;101158.38;5015118;28;2091;-42
2023/04/28 06:43:15;;;;;;;;;;;;;;;16.23;49.18;101165.00;5004789;28;1162;-40
2023/04/28 06:45:52;;;;;;;;;;;;;;;17.75;45.46;101160.84;5001545;28;1918;-44
2023/04/28 06:48:17;;;;;;;;;;;;;;;16.80;47.65;101159.06;5014934;28;1087;-45
2023/04/28 06:50:43;;;;;;;;;;;;;;;16.41;48.75;101155.53;5014715;28;1052;-46
2023/04/28 06:53:10;;;;;;;;;;;;;;;16.18;49.19;101153.16;5015028;28;1342;-44
2023/04/28 06:55:35;;;;;;;;;;;;;;;16.43;48.84;101163.50;5014694;28;1424;-43
2023/04/28 06:58:01;;;;;;;;;;;;;;;17.54;46.00;101155.28;5016224;28;1108;-47
2023/04/28 07:00:28;;;;;;;;;;;;;;;16.65;48.07;101146.91;5021429;28;1036;-45
2023/04/28 07:02:53;;;;;;;;;;;;;;;16.32;49.00;101159.84;5016367;28;1262;-45
2023/04/28 07:05:19;;;;;;;;;;;;;;;16.15;49.40;101159.16;5019053;28;1894;-44
2023/04/28 07:07:44;;;;;;;;;;;;;;;17.70;45.95;101156.16;5017393;28;1068;-47
2023/04/28 07:10:10;;;;;;;;;;;;;;;16.82;47.66;101151.41;5009535;28;1135;-42
2023/04/28 07:12:36;;;;;;;;;;;;;;;16.46;48.87;101151.16;5019460;28;896;-44
2023/04/28 07:15:01;;;;;;;;;;;;;;;16.36;49.00;101160.97;5020249;28;1103;-43
2023/04/28 07:17:27;;;;;;;;;;;;;;;17.71;45.92;101156.97;5019803;28;1065;-45
2023/04/28 07:19:52;;;;;;;;;;;;;;;16.80;48.10;101150.84;5020116;28;1080;-45
2023/04/28 07:22:18;;;;;;;;;;;;;;;16.40;49.06;101145.63;5019944;28;1267;-43
2023/04/28 07:24:43;;;;;;;;;;;;;;;16.25;49.39;101145.53;5030044;28;1902;-45
2023/04/28 07:27:09;;;;;;;;;;;;;;;17.56;46.49;101155.03;5019903;28;1286;-45
2023/04/28 07:29:34;;;;;;;;;;;;;;;17.00;47.46;101153.72;5018115;28;1325;-47
2023/04/28 07:32:00;;;;;;;;;;;;;;;16.48;48.92;101157.22;5008285;28;1115;-45
2023/04/28 07:34:26;;;;;;;;;;;;;;;16.23;49.46;101159.50;5008196;28;1190;-47
2023/04/28 07:36:51;;;;;;;;;;;;;;;16.90;48.04;101149.00;5005430;28;1052;-44
2023/04/28 07:39:17;;;;;;;;;;;;;;;17.29;46.94;101150.53;5000061;28;1203;-44
2023/04/28 07:41:42;;;;;;;;;;;;;;;16.57;48.67;101139.16;5018329;28;1067;-45
2023/04/28 07:44:09;;;;;;;;;;;;;;;16.28;49.28;101142.25;5014287;28;1934;-46
2023/04/28 07:46:34;;;;;;;;;;;;;;;16.83;48.23;101147.53;5010133;28;1116;-49
2023/04/28 07:49:00;;;;;;;;;;;;;;;17.13;47.24;101135.09;5018619;28;1139;-44
2023/04/28 07:51:25;;;;;;;;;;;;;;;16.51;48.98;101140.22;5019426;28;1213;-43
2023/04/28 07:53:51;;;;;;;;;;;;;;;16.20;49.50;101134.50;5018638;28;1083;-46
2023/04/28 07:56:16;;;;;;;;;;;;;;;16.69;48.64;101153.53;5018798;28;1298;-42
2023/04/28 07:58:42;;;;;;;;;;;;;;;17.39;46.48;101138.75;5019286;28;1107;-43
2023/04/28 08:01:07;;;;;;;;;;;;;;;16.62;48.76;101143.84;5031330;28;1191;-42
2023/04/28 08:03:33;;;;;;;;;;;;;;;16.33;49.16;101145.03;5019452;28;1289;-46
2023/04/28 08:05:59;;;;;;;;;;;;;;;16.16;49.83;101133.38;5018697;28;1971;-44
2023/04/28 08:08:25;;;;;;;;;;;;;;;17.54;46.42;101129.72;5018990;28;1130;-42
2023/04/28 08:10:51;;;;;;;;;;;;;;;17.02;47.52;101121.31;5017514;28;1143;-44
2023/04/28 08:13:16;;;;;;;;;;;;;;;16.49;48.79;101126.75;5029502;28;1095;-46
2023/04/28 08:15:42;;;;;;;;;;;;;;;16.24;49.46;101125.50;5017890;28;1047;-46
2023/04/28 08:18:07;;;;;;;;;;;;;;;16.14;49.76;101128.13;5019180;28;1087;-48
2023/04/28 08:20:33;;;;;;;;;;;;;;;17.38;46.79;101126.94;5018483;28;1157;-45
2023/04/28 08:22:58;;;;;;;;;;;;;;;17.03;47.38;101113.91;5018060;28;1237;-48
2023/04/28 08:25:24;;;;;;;;;;;;;;;16.47;49.07;101111.66;5025541;28;1977;-43
2023/04/28 08:27:50;;;;;;;;;;;;;;;16.25;49.49;101127.13;5017308;28;1114;-43
2023/04/28 08:30:15;;;;;;;;;;;;;;;16.11;49.84;101119.63;5018956;28;1095;-45
2023/04/28 08:32:41;;;;;;;;;;;;;;;17.56;46.52;101119.31;5018724;28;1031;-47
2023/04/28 08:35:06;;;;;;;;;;;;;;;16.88;47.74;101120.13;5018495;28;1086;-43
2023/04/28 08:37:32;;;;;;;;;;;;;;;16.41;49.26;101114.38;5024638;28;885;-44
2023/04/28 08:40:08;;;;;;;;;;;;;;;16.18;49.55;101112.81;5018379;28;1059;-45
2023/04/28 08:42:33;;;;;;;;;;;;;;;17.38;46.80;101110.44;5018322;28;1121;-44
2023/04/28 08:44:59;;;;;;;;;;;;;;;17.09;47.55;101118.31;5013156;28;1910;-44
2023/04/28 08:47:34;;;;;;;;;;;;;;;16.58;48.86;101113.38;4998670;28;1171;-43
2023/04/28 08:50:04;;;;;;;;;;;;;;;16.23;49.47;101107.38;5017626;28;1140;-48
2023/04/28 08:52:30;;;;;;;;;;;;;;;16.95;48.15;101111.69;5018329;28;1175;-46
2023/04/28 08:54:57;;;;;;;;;;;;;;;17.03;47.59;101097.44;5017067;28;1061;-47
2023/04/28 08:57:22;;;;;;;;;;;;;;;16.43;49.07;101095.69;5018153;28;1058;-48
2023/04/28 08:59:48;;;;;;;;;;;;;;;16.36;49.28;101100.59;5019576;28;1210;-47
2023/04/28 09:02:13;;;;;;;;;;;;;;;17.81;45.91;101106.66;5024991;28;1086;-46
2023/04/28 09:04:39;;;;;;;;;;;;;;;16.95;47.73;101095.19;5018216;28;1980;-44
2023/04/28 09:07:09;;;;;;;;;;;;;;;16.50;48.94;101095.47;5017500;28;1079;-50
2023/04/28 09:09:35;;;;;;;;;;;;;;;16.31;49.39;101086.00;5018050;28;1103;-45
2023/04/28 09:12:01;;;;;;;;;;;;;;;16.26;49.88;101106.03;5018599;28;1000;-46
2023/04/28 09:14:27;;;;;;;;;;;;;;;17.53;46.46;101090.41;5017802;28;1131;-48
2023/04/28 09:16:52;;;;;;;;;;;;;;;16.69;48.56;101087.63;5016247;28;1051;-43
2023/04/28 09:19:18;;;;;;;;;;;;;;;16.37;49.34;101079.50;5016431;28;1182;-44
2023/04/28 09:21:51;;;;;;;;;;;;;;;16.16;49.71;101089.47;5022270;28;1079;-48
2023/04/28 09:24:30;;;;;;;;;;;;;;;17.31;47.03;101081.59;5020886;28;1961;-42
2023/04/28 09:26:55;;;;;;;;;;;;;;;16.79;48.08;101086.84;5020478;28;1449;-44
2023/04/28 09:29:21;;;;;;;;;;;;;;;16.36;49.09;101089.63;5017756;28;1135;-47
2023/04/28 09:31:47;;;;;;;;;;;;;;;16.15;49.67;101090.56;5017806;28;1127;-46
2023/04/28 09:34:12;;;;;;;;;;;;;;;17.22;47.45;101081.25;5017540;28;1087;-46
2023/04/28 09:36:38;;;;;;;;;;;;;;;17.00;47.71;101085.03;5019995;28;1178;-47
2023/04/28 09:39:03;;;;;;;;;;;;;;;16.47;49.10;101070.50;5017498;28;1145;-45
2023/04/28 09:41:39;;;;;;;;;;;;;;;16.24;49.48;101081.59;5017325;28;1106;-42
2023/04/28 09:44:20;;;;;;;;;;;;;;;16.49;48.95;101080.09;5016720;28;1921;-44
2023/04/28 09:46:46;;;;;;;;;;;;;;;17.33;46.87;101066.44;5016798;28;1153;-46
2023/04/28 09:49:12;;;;;;;;;;;;;;;16.62;48.54;101076.06;5026591;28;1173;-47
2023/04/28 09:51:38;;;;;;;;;;;;;;;16.29;49.29;101078.03;5017608;28;1130;-45
2023/04/28 09:54:03;;;;;;;;;;;;;;;16.80;48.42;101072.00;5017729;28;1124;-43
2023/04/28 09:56:29;;;;;;;;;;;;;;;17.28;46.89;101066.44;5017090;28;1086;-47
2023/04/28 09:58:58;;;;;;;;;;;;;;;16.57;48.86;101051.31;5017143;28;1091;-47
2023/04/28 10:01:24;;;;;;;;;;;;;;;16.33;49.32;101068.19;5021298;28;1119;-46
2023/04/28 10:03:49;;;;;;;;;;;;;;;16.51;49.20;101068.84;5016951;28;2005;-43
2023/04/28 10:06:15;;;;;;;;;;;;;;;17.67;46.18;101063.22;5017029;28;1059;-45
2023/04/28 10:08:40;;;;;;;;;;;;;;;16.82;48.32;101049.78;5028314;28;1073;-47
2023/04/28 10:11:06;;;;;;;;;;;;;;;16.42;49.05;101055.63;5017873;28;1150;-48
2023/04/28 10:13:31;;;;;;;;;;;;;;;16.52;49.00;101057.63;5027413;28;1079;-48
2023/04/28 10:15:57;;;;;;;;;;;;;;;17.42;46.79;101062.06;5015815;28;1198;-43
2023/04/28 10:18:23;;;;;;;;;;;;;;;16.68;48.53;101058.50;5016990;28;1150;-46
2023/04/28 10:20:49;;;;;;;;;;;;;;;16.38;49.36;101056.41;5016752;28;1135;-43
2023/04/28 10:23:46;;;;;;;;;;;;;;;17.45;46.83;101071.72;5022453;28;1195;-45
2023/04/28 10:26:13;;;;;;;;;;;;;;;16.79;48.11;101055.78;4993693;28;1278;-48
2023/04/28 10:28:47;;;;;;;;;;;;;;;16.48;49.01;101061.13;5014272;28;1076;-43
2023/04/28 10:31:20;;;;;;;;;;;;;;;16.23;49.48;101057.16;5016493;28;1040;-48
2023/04/28 10:33:45;;;;;;;;;;;;;;;16.54;49.17;101063.66;5016810;28;1068;-46
2023/04/28 10:36:17;;;;;;;;;;;;;;;17.44;46.73;101057.13;5016909;28;1067;-47
2023/04/28 10:39:02;;;;;;;;;;;;;;;16.62;48.56;101065.09;5015159;28;1189;-45
2023/04/28 10:41:30;;;;;;;;;;;;;;;16.24;49.65;101043.19;5020484;28;1127;-47
2023/04/28 10:43:56;;;;;;;;;;;;;;;16.11;49.79;101051.84;5020564;28;1913;-49
2023/04/28 10:46:22;;;;;;;;;;;;;;;17.10;47.76;101056.78;5020433;28;1166;-46
2023/04/28 10:48:47;;;;;;;;;;;;;;;17.26;46.94;101042.00;5023034;28;1115;-45
2023/04/28 10:51:15;;;;;;;;;;;;;;;16.63;48.79;101033.75;5023854;28;1026;-47
2023/04/28 10:53:44;;;;;;;;;;;;;;;16.29;49.50;101045.13;5020514;28;1205;-43
2023/04/28 10:56:10;;;;;;;;;;;;;;;16.13;50.08;101051.59;5020672;28;1147;-44
2023/04/28 10:58:40;;;;;;;;;;;;;;;17.45;46.90;101045.03;5020149;28;1198;-43
2023/04/28 11:01:20;;;;;;;;;;;;;;;16.81;48.15;101037.97;5020359;28;1039;-44
2023/04/28 11:03:46;;;;;;;;;;;;;;;16.42;49.26;101055.63;5020184;28;1910;-46
2023/04/28 11:06:27;;;;;;;;;;;;;;;16.24;49.80;101048.66;5020107;28;1138;-47
2023/04/28 11:08:54;;;;;;;;;;;;;;;17.52;46.38;101041.22;5020174;28;1036;-43
2023/04/28 11:11:20;;;;;;;;;;;;;;;16.66;48.70;101038.75;5019809;28;1059;-47
2023/04/28 11:13:46;;;;;;;;;;;;;;;16.31;49.67;101040.19;5027238;28;1067;-45
2023/04/28 11:16:16;;;;;;;;;;;;;;;16.10;50.20;101047.44;5019875;28;1104;-45
2023/04/28 11:18:52;;;;;;;;;;;;;;;16.06;50.13;101052.66;5018708;28;1063;-47
2023/04/28 11:21:20;;;;;;;;;;;;;;;16.98;48.02;101051.50;5022487;28;1106;-47
2023/04/28 11:23:46;;;;;;;;;;;;;;;16.99;47.92;101052.34;5021936;28;1910;-48
2023/04/28 11:26:12;;;;;;;;;;;;;;;16.46;48.95;101047.69;5020922;28;853;-44
2023/04/28 11:28:51;;;;;;;;;;;;;;;16.71;48.81;101044.25;5019405;28;1059;-44
2023/04/28 11:31:25;;;;;;;;;;;;;;;17.45;46.59;101074.47;5019582;28;1135;-44
2023/04/28 11:33:58;;;;;;;;;;;;;;;16.62;48.79;101058.75;5019354;28;968;-47
2023/04/28 11:36:24;;;;;;;;;;;;;;;16.35;49.55;101038.56;5018956;28;1047;-45
2023/04/28 11:38:49;;;;;;;;;;;;;;;16.59;49.01;101054.59;5019633;28;1247;-49
2023/04/28 11:41:15;;;;;;;;;;;;;;;17.50;46.56;101057.13;5012592;28;1106;-45
2023/04/28 11:43:40;;;;;;;;;;;;;;;16.71;48.56;101057.16;5019238;28;1187;-45
2023/04/28 11:46:06;;;;;;;;;;;;;;;16.37;49.58;101041.06;5005841;28;1968;-45
2023/04/28 11:48:32;;;;;;;;;;;;;;;16.16;50.01;101045.56;5018130;28;932;-44
2023/04/28 11:50:57;;;;;;;;;;;;;;;16.98;48.16;101046.00;5024937;28;1114;-45
2023/04/28 11:53:41;;;;;;;;;;;;;;;17.04;47.52;101044.94;5019211;28;1066;-44
2023/04/28 11:56:07;;;;;;;;;;;;;;;16.42;49.17;101043.81;5007101;28;1039;-44
2023/04/28 11:58:33;;;;;;;;;;;;;;;16.20;50.03;101047.53;5019242;28;1110;-44
2023/04/28 12:01:11;;;;;;;;;;;;;;;16.62;49.10;101043.13;5019125;28;1234;-44
2023/04/28 12:03:46;;;;;;;;;;;;;;;17.45;46.68;101034.03;5010650;28;1083;-46
2023/04/28 12:06:11;;;;;;;;;;;;;;;16.60;48.98;101051.59;5019058;28;1147;-43
2023/04/28 12:08:37;;;;;;;;;;;;;;;16.33;49.52;101051.72;5017761;28;1528;-43
2023/04/28 12:11:07;;;;;;;;;;;;;;;16.16;50.06;101038.19;5018962;28;1086;-46
2023/04/28 12:13:32;;;;;;;;;;;;;;;17.42;46.90;101048.34;5022392;28;1083;-42
2023/04/28 12:16:00;;;;;;;;;;;;;;;17.02;47.74;101025.16;5019690;28;1217;-47
2023/04/28 12:18:25;;;;;;;;;;;;;;;16.50;49.04;101026.03;5018952;28;1115;-46
2023/04/28 12:20:51;;;;;;;;;;;;;;;16.24;49.97;101026.72;5015424;28;1078;-46
2023/04/28 12:23:27;;;;;;;;;;;;;;;16.55;49.29;101039.75;5018862;28;1129;-47
2023/04/28 12:25:52;;;;;;;;;;;;;;;17.45;46.69;101016.72;5018050;28;1918;-47
2023/04/28 12:28:18;;;;;;;;;;;;;;;16.62;48.94;101014.81;5017676;28;1143;-48
2023/04/28 12:30:44;;;;;;;;;;;;;;;16.34;49.54;101014.13;5018925;28;967;-46
2023/04/28 12:33:25;;;;;;;;;;;;;;;16.50;49.12;101020.53;5018634;28;1135;-49
2023/04/28 12:35:53;;;;;;;;;;;;;;;17.40;46.62;101022.22;5022793;28;1176;-51
2023/04/28 12:38:19;;;;;;;;;;;;;;;16.65;48.67;101009.63;5014873;28;1434;-44
2023/04/28 12:40:45;;;;;;;;;;;;;;;16.39;49.50;101008.69;5018421;28;1214;-42
2023/04/28 12:43:10;;;;;;;;;;;;;;;16.32;49.68;101005.34;5018599;28;1309;-46
2023/04/28 12:45:36;;;;;;;;;;;;;;;17.67;46.27;101002.72;5018195;28;1913;-45